createdAt,value
2016-08-01T00:00:15.372Z,1009.07
2016-08-01T00:01:15.398Z,1009.1
2016-08-01T00:02:15.423Z,1009.14
2016-08-01T00:03:15.449Z,1009.15
2016-08-01T00:04:15.475Z,1009.19
2016-08-01T00:05:15.502Z,1009.23
2016-08-01T00:06:15.531Z,1009.25
2016-08-01T00:07:15.554Z,1009.28
2016-08-01T00:08:15.583Z,1009.32
2016-08-01T00:09:15.608Z,1009.27
2016-08-01T00:10:15.632Z,1009.35
2016-08-01T00:12:15.687Z,1009.36
2016-08-01T00:13:15.713Z,1009.42
2016-08-01T00:14:15.737Z,1009.38
2016-08-01T00:15:15.766Z,1009.4
2016-08-01T00:16:15.790Z,1009.38
2016-08-01T00:17:15.869Z,1009.38
2016-08-01T00:18:15.842Z,1009.35
2016-08-01T00:19:15.870Z,1009.37
2016-08-01T00:20:15.895Z,1009.42
2016-08-01T00:21:15.921Z,1009.39
2016-08-01T00:22:15.947Z,1009.39
2016-08-01T00:23:15.974Z,1009.41
2016-08-01T00:24:16.013Z,1009.42
2016-08-01T00:25:16.025Z,1009.39
2016-08-01T00:26:16.054Z,1009.42
2016-08-01T00:28:16.104Z,1009.43
2016-08-01T00:29:16.131Z,1009.43
2016-08-01T00:30:16.159Z,1009.44
2016-08-01T00:31:16.183Z,1009.46
2016-08-01T00:32:16.210Z,1009.49
2016-08-01T00:33:16.238Z,1009.53
2016-08-01T00:34:16.264Z,1009.52
2016-08-01T00:35:16.291Z,1009.48
2016-08-01T00:36:16.315Z,1009.5
2016-08-01T00:37:16.341Z,1009.51
2016-08-01T00:38:16.366Z,1009.52
2016-08-01T00:39:16.395Z,1009.56
2016-08-01T00:40:16.419Z,1009.59
2016-08-01T00:41:16.447Z,1009.59
2016-08-01T00:42:16.474Z,1009.6
2016-08-01T00:44:16.524Z,1009.6
2016-08-01T00:45:16.551Z,1009.6
2016-08-01T00:46:16.578Z,1009.59
2016-08-01T00:47:16.603Z,1009.58
2016-08-01T00:48:16.627Z,1009.59
2016-08-01T00:49:16.656Z,1009.58
2016-08-01T00:50:16.681Z,1009.54
2016-08-01T00:51:16.707Z,1009.57
2016-08-01T00:52:16.734Z,1009.56
2016-08-01T00:53:16.760Z,1009.54
2016-08-01T00:54:16.783Z,1009.56
2016-08-01T00:55:16.814Z,1009.59
2016-08-01T00:56:16.837Z,1009.6
2016-08-01T00:57:16.864Z,1009.57
2016-08-01T00:58:16.940Z,1009.55
2016-08-01T01:00:16.940Z,1009.58
2016-08-01T01:01:16.969Z,1009.61
2016-08-01T01:02:16.992Z,1009.61
2016-08-01T01:03:17.018Z,1009.67
2016-08-01T01:04:17.045Z,1009.64
2016-08-01T01:05:17.072Z,1009.64
2016-08-01T01:06:17.095Z,1009.62
2016-08-01T01:07:17.125Z,1009.66
2016-08-01T01:08:17.149Z,1009.61
2016-08-01T01:09:17.176Z,1009.6
2016-08-01T01:10:17.200Z,1009.59
2016-08-01T01:11:17.226Z,1009.54
2016-08-01T01:12:17.252Z,1009.54
2016-08-01T01:13:17.281Z,1009.56
2016-08-01T01:15:17.331Z,1009.55
2016-08-01T01:16:17.358Z,1009.52
2016-08-01T01:17:17.385Z,1009.52
2016-08-01T01:18:17.411Z,1009.5
2016-08-01T01:19:17.438Z,1009.56
2016-08-01T01:20:17.462Z,1009.56
2016-08-01T01:21:17.487Z,1009.54
2016-08-01T01:22:17.514Z,1009.56
2016-08-01T01:23:17.538Z,1009.55
2016-08-01T01:24:17.564Z,1009.6
2016-08-01T01:25:17.591Z,1009.61
2016-08-01T01:26:17.619Z,1009.62
2016-08-01T01:27:17.644Z,1009.65
2016-08-01T01:28:17.669Z,1009.64
2016-08-01T01:29:17.695Z,1009.66
2016-08-01T01:30:17.728Z,1009.64
2016-08-01T01:31:17.747Z,1009.63
2016-08-01T01:32:17.772Z,1009.66
2016-08-01T01:33:17.801Z,1009.6
2016-08-01T01:34:17.825Z,1009.63
2016-08-01T01:35:17.850Z,1009.62
2016-08-01T01:36:17.876Z,1009.62
2016-08-01T01:37:17.902Z,1009.62
2016-08-01T01:38:17.929Z,1009.66
2016-08-01T01:39:18.005Z,1009.6
2016-08-01T01:40:17.981Z,1009.64
2016-08-01T01:41:18.007Z,1009.64
2016-08-01T01:42:18.030Z,1009.65
2016-08-01T01:43:18.057Z,1009.62
2016-08-01T01:44:18.085Z,1009.68
2016-08-01T01:45:18.110Z,1009.67
2016-08-01T01:47:18.163Z,1009.68
2016-08-01T01:48:18.187Z,1009.68
2016-08-01T01:49:18.213Z,1009.72
2016-08-01T01:50:18.238Z,1009.71
2016-08-01T01:51:18.266Z,1009.69
2016-08-01T01:52:18.290Z,1009.67
2016-08-01T01:53:18.314Z,1009.67
2016-08-01T01:54:18.341Z,1009.69
2016-08-01T01:55:18.367Z,1009.65
2016-08-01T01:56:18.392Z,1009.66
2016-08-01T01:57:18.420Z,1009.65
2016-08-01T01:58:18.446Z,1009.62
2016-08-01T01:59:18.472Z,1009.63
2016-08-01T02:00:18.498Z,1009.59
2016-08-01T02:01:18.524Z,1009.63
2016-08-01T02:03:18.576Z,1009.61
2016-08-01T02:04:18.601Z,1009.59
2016-08-01T02:05:18.625Z,1009.61
2016-08-01T02:06:18.653Z,1009.62
2016-08-01T02:07:18.678Z,1009.56
2016-08-01T02:08:18.702Z,1009.61
2016-08-01T02:09:18.730Z,1009.6
2016-08-01T02:10:18.756Z,1009.59
2016-08-01T02:11:18.781Z,1009.64
2016-08-01T02:12:18.805Z,1009.65
2016-08-01T02:13:18.833Z,1009.67
2016-08-01T02:14:18.859Z,1009.7
2016-08-01T02:15:18.884Z,1009.69
2016-08-01T02:16:18.910Z,1009.69
2016-08-01T02:17:18.936Z,1009.69
2016-08-01T02:19:18.988Z,1009.69
2016-08-01T02:20:19.016Z,1009.7
2016-08-01T02:21:19.039Z,1009.75
2016-08-01T02:22:19.062Z,1009.77
2016-08-01T02:23:19.089Z,1009.79
2016-08-01T02:24:19.114Z,1009.78
2016-08-01T02:25:19.142Z,1009.75
2016-08-01T02:26:19.166Z,1009.78
2016-08-01T02:27:19.190Z,1009.74
2016-08-01T02:28:19.218Z,1009.7
2016-08-01T02:29:19.241Z,1009.71
2016-08-01T02:30:19.269Z,1009.7
2016-08-01T02:31:19.296Z,1009.7
2016-08-01T02:32:19.322Z,1009.74
2016-08-01T02:33:19.343Z,1009.75
2016-08-01T02:35:19.397Z,1009.73
2016-08-01T02:36:19.424Z,1009.8
2016-08-01T02:37:19.448Z,1009.83
2016-08-01T02:38:19.473Z,1009.84
2016-08-01T02:39:19.501Z,1009.85
2016-08-01T02:40:19.525Z,1009.83
2016-08-01T02:41:19.550Z,1009.83
2016-08-01T02:42:19.579Z,1009.85
2016-08-01T02:43:19.605Z,1009.83
2016-08-01T02:44:19.629Z,1009.8
2016-08-01T02:45:19.656Z,1009.8
2016-08-01T02:46:19.682Z,1009.85
2016-08-01T02:47:19.705Z,1009.83
2016-08-01T02:48:19.734Z,1009.81
2016-08-01T02:50:19.783Z,1009.84
2016-08-01T02:51:19.809Z,1009.83
2016-08-01T02:52:19.836Z,1009.83
2016-08-01T02:53:19.862Z,1009.79
2016-08-01T02:54:19.886Z,1009.81
2016-08-01T02:55:19.910Z,1009.83
2016-08-01T02:56:19.936Z,1009.85
2016-08-01T02:57:19.962Z,1009.81
2016-08-01T02:58:19.987Z,1009.84
2016-08-01T02:59:20.015Z,1009.79
2016-08-01T03:00:20.040Z,1009.86
2016-08-01T03:01:20.067Z,1009.83
2016-08-01T03:02:20.092Z,1009.86
2016-08-01T03:03:20.117Z,1009.84
2016-08-01T03:04:20.143Z,1009.89
2016-08-01T03:05:20.167Z,1009.87
2016-08-01T03:06:20.194Z,1009.85
2016-08-01T03:07:20.220Z,1009.9
2016-08-01T03:08:20.244Z,1009.92
2016-08-01T03:09:20.271Z,1009.92
2016-08-01T03:10:20.296Z,1009.92
2016-08-01T03:11:20.322Z,1009.94
2016-08-01T03:12:20.347Z,1009.96
2016-08-01T03:13:20.373Z,1009.98
2016-08-01T03:14:20.396Z,1009.97
2016-08-01T03:15:20.426Z,1009.98
2016-08-01T03:16:20.449Z,1009.96
2016-08-01T03:17:20.475Z,1009.98
2016-08-01T03:18:20.500Z,1009.94
2016-08-01T03:19:20.525Z,1009.98
2016-08-01T03:20:20.552Z,1009.9
2016-08-01T03:22:20.604Z,1010.02
2016-08-01T03:23:20.627Z,1010.08
2016-08-01T03:24:20.654Z,1010.08
2016-08-01T03:25:20.678Z,1010.08
2016-08-01T03:26:20.707Z,1010.11
2016-08-01T03:27:20.730Z,1010.08
2016-08-01T03:28:20.757Z,1010.1
2016-08-01T03:29:20.780Z,1010.13
2016-08-01T03:30:20.809Z,1010.15
2016-08-01T03:31:20.832Z,1010.26
2016-08-01T03:32:20.858Z,1010.24
2016-08-01T03:33:20.885Z,1010.29
2016-08-01T03:35:20.934Z,1010.34
2016-08-01T03:36:21.009Z,1010.39
2016-08-01T03:38:21.013Z,1010.36
2016-08-01T03:39:21.038Z,1010.36
2016-08-01T03:40:21.063Z,1010.37
2016-08-01T03:41:21.097Z,1010.37
2016-08-01T03:42:21.112Z,1010.42
2016-08-01T03:43:21.139Z,1010.36
2016-08-01T03:44:21.166Z,1010.42
2016-08-01T03:45:21.189Z,1010.42
2016-08-01T03:46:21.215Z,1010.39
2016-08-01T03:47:21.243Z,1010.44
2016-08-01T03:48:21.266Z,1010.48
2016-08-01T03:50:21.318Z,1010.46
2016-08-01T03:51:21.345Z,1010.48
2016-08-01T03:52:21.370Z,1010.51
2016-08-01T03:54:21.420Z,1010.54
2016-08-01T03:55:21.448Z,1010.59
2016-08-01T03:56:21.474Z,1010.59
2016-08-01T03:57:21.496Z,1010.65
2016-08-01T03:58:21.525Z,1010.64
2016-08-01T03:59:21.550Z,1010.66
2016-08-01T04:00:21.574Z,1010.68
2016-08-01T04:01:21.601Z,1010.72
2016-08-01T04:02:21.637Z,1010.72
2016-08-01T04:03:21.651Z,1010.64
2016-08-01T04:05:21.704Z,1010.67
2016-08-01T04:06:21.733Z,1010.6
2016-08-01T04:07:21.756Z,1010.65
2016-08-01T04:08:21.781Z,1010.66
2016-08-01T04:10:21.831Z,1010.73
2016-08-01T04:11:21.859Z,1010.72
2016-08-01T04:12:21.881Z,1010.78
2016-08-01T04:13:21.908Z,1010.81
2016-08-01T04:14:21.933Z,1010.8
2016-08-01T04:15:21.960Z,1010.85
2016-08-01T04:16:21.985Z,1010.83
2016-08-01T04:17:22.013Z,1010.91
2016-08-01T04:18:22.039Z,1010.89
2016-08-01T04:20:22.087Z,1010.9
2016-08-01T04:21:22.116Z,1010.9
2016-08-01T04:22:22.142Z,1010.92
2016-08-01T04:23:22.165Z,1010.93
2016-08-01T04:25:22.220Z,1010.96
2016-08-01T04:26:22.248Z,1010.98
2016-08-01T04:27:22.268Z,1010.97
2016-08-01T04:28:22.296Z,1010.98
2016-08-01T04:29:22.320Z,1011.01
2016-08-01T04:30:22.345Z,1011.03
2016-08-01T04:31:22.375Z,1011.01
2016-08-01T04:32:22.397Z,1011.04
2016-08-01T04:33:22.422Z,1011.07
2016-08-01T04:35:22.475Z,1011.11
2016-08-01T04:36:22.500Z,1011.08
2016-08-01T04:37:22.528Z,1011.08
2016-08-01T04:38:22.554Z,1011.06
2016-08-01T04:39:22.578Z,1011.12
2016-08-01T04:40:22.605Z,1011.07
2016-08-01T04:41:22.628Z,1011.08
2016-08-01T04:42:22.655Z,1011.13
2016-08-01T04:43:22.683Z,1011.15
2016-08-01T04:44:22.712Z,1011.1
2016-08-01T04:45:22.735Z,1011.11
2016-08-01T04:46:22.761Z,1011.14
2016-08-01T04:47:22.784Z,1011.15
2016-08-01T04:48:22.812Z,1011.12
2016-08-01T04:49:22.837Z,1011.16
2016-08-01T04:50:22.915Z,1011.13
2016-08-01T04:51:22.889Z,1011.16
2016-08-01T04:52:22.917Z,1011.21
2016-08-01T04:53:22.943Z,1011.2
2016-08-01T04:54:22.969Z,1011.24
2016-08-01T04:55:22.992Z,1011.26
2016-08-01T04:57:23.048Z,1011.27
2016-08-01T04:58:23.074Z,1011.37
2016-08-01T04:59:23.098Z,1011.3
2016-08-01T05:00:23.125Z,1011.32
2016-08-01T05:01:23.152Z,1011.55
2016-08-01T05:02:23.179Z,1011.3
2016-08-01T05:03:23.203Z,1011.65
2016-08-01T05:05:23.259Z,1011.45
2016-08-01T05:06:23.285Z,1011.84
2016-08-01T05:07:23.311Z,1011.8
2016-08-01T05:08:23.340Z,1011.57
2016-08-01T05:09:23.368Z,1011.43
2016-08-01T05:10:23.396Z,1011.74
2016-08-01T05:11:23.421Z,1011.58
2016-08-01T05:13:23.478Z,1011.67
2016-08-01T05:14:23.506Z,1011.67
2016-08-01T05:15:23.535Z,1011.69
2016-08-01T05:16:23.564Z,1011.65
2016-08-01T05:17:23.594Z,1011.58
2016-08-01T05:18:23.622Z,1011.66
2016-08-01T05:20:23.682Z,1011.73
2016-08-01T05:21:23.714Z,1011.55
2016-08-01T05:22:23.742Z,1011.56
2016-08-01T05:23:23.773Z,1011.58
2016-08-01T05:24:23.807Z,1011.78
2016-08-01T05:25:23.833Z,1011.52
2016-08-01T05:26:23.866Z,1011.62
2016-08-01T05:27:23.896Z,1011.74
2016-08-01T05:29:23.957Z,1011.8
2016-08-01T05:30:23.987Z,1011.73
2016-08-01T05:31:24.019Z,1011.68
2016-08-01T05:32:24.046Z,1011.94
2016-08-01T05:33:24.079Z,1012.1
2016-08-01T05:35:24.141Z,1012.14
2016-08-01T05:36:24.170Z,1012.13
2016-08-01T05:37:24.200Z,1012.24
2016-08-01T05:38:24.232Z,1012.28
2016-08-01T05:39:24.261Z,1012.34
2016-08-01T05:40:24.293Z,1012.39
2016-08-01T05:41:24.326Z,1012.43
2016-08-01T05:42:24.358Z,1012.43
2016-08-01T05:43:24.389Z,1012.47
2016-08-01T05:45:24.456Z,1012.42
2016-08-01T05:46:24.488Z,1012.48
2016-08-01T05:47:24.521Z,1012.47
2016-08-01T05:48:24.555Z,1012.37
2016-08-01T05:50:24.622Z,1012.36
2016-08-01T05:51:24.655Z,1012.33
2016-08-01T05:52:24.690Z,1012.42
2016-08-01T05:53:24.724Z,1012.52
2016-08-01T05:54:24.754Z,1012.54
2016-08-01T05:55:24.790Z,1012.45
2016-08-01T05:56:24.825Z,1012.52
2016-08-01T05:57:24.858Z,1012.49
2016-08-01T05:58:24.890Z,1012.52
2016-08-01T06:00:24.961Z,1012.45
2016-08-01T06:01:24.993Z,1012.45
2016-08-01T06:02:25.027Z,1012.51
2016-08-01T06:03:25.063Z,1012.42
2016-08-01T06:05:25.129Z,1012.56
2016-08-01T06:06:25.171Z,1012.59
2016-08-01T06:07:25.199Z,1012.57
2016-08-01T06:08:25.231Z,1012.5
2016-08-01T06:09:25.266Z,1012.53
2016-08-01T06:10:25.302Z,1012.66
2016-08-01T06:11:25.334Z,1012.6
2016-08-01T06:12:25.368Z,1012.61
2016-08-01T06:13:25.403Z,1012.49
2016-08-01T06:14:25.439Z,1012.56
2016-08-01T06:15:25.481Z,1012.28
2016-08-01T06:16:25.509Z,1012.67
2016-08-01T06:17:25.540Z,1012.7
2016-08-01T06:18:25.579Z,1012.71
2016-08-01T06:19:25.612Z,1012.66
2016-08-01T06:20:25.646Z,1012.92
2016-08-01T06:21:25.680Z,1013.11
2016-08-01T06:22:25.714Z,1013.16
2016-08-01T06:23:25.747Z,1013.19
2016-08-01T06:24:25.784Z,1013.13
2016-08-01T06:25:25.819Z,1013.06
2016-08-01T06:26:25.853Z,1013.03
2016-08-01T06:27:25.886Z,1013.09
2016-08-01T06:28:25.922Z,1013.13
2016-08-01T06:29:25.957Z,1013.1
2016-08-01T06:30:25.990Z,1013.02
2016-08-01T06:32:26.062Z,1013.14
2016-08-01T06:33:26.097Z,1013.15
2016-08-01T06:34:26.131Z,1013.19
2016-08-01T06:35:26.165Z,1013.19
2016-08-01T06:36:26.199Z,1013.22
2016-08-01T06:37:26.237Z,1013.25
2016-08-01T06:38:26.268Z,1013.23
2016-08-01T06:39:26.305Z,1013.22
2016-08-01T06:40:26.340Z,1013.32
2016-08-01T06:41:26.374Z,1013.41
2016-08-01T06:42:26.410Z,1013.41
2016-08-01T06:43:26.445Z,1013.53
2016-08-01T06:44:26.482Z,1013.33
2016-08-01T06:45:26.515Z,1012.89
2016-08-01T06:46:26.603Z,1012.88
2016-08-01T06:48:26.622Z,1012.92
2016-08-01T06:49:26.660Z,1013.16
2016-08-01T06:50:26.690Z,1012.58
2016-08-01T06:51:26.729Z,1012.18
2016-08-01T06:52:26.761Z,1012.39
2016-08-01T06:53:26.795Z,1013.68
2016-08-01T06:54:26.829Z,1012.26
2016-08-01T06:55:26.867Z,1013.67
2016-08-01T06:56:26.897Z,1012.44
2016-08-01T06:57:26.935Z,1013.56
2016-08-01T06:58:26.970Z,1012.68
2016-08-01T06:59:27.002Z,1012.93
2016-08-01T07:00:27.036Z,1012.64
2016-08-01T07:01:27.069Z,1012.1
2016-08-01T07:02:27.104Z,1012.22
2016-08-01T07:04:27.173Z,1012.28
2016-08-01T07:05:27.205Z,1013.64
2016-08-01T07:06:27.239Z,1012.09
2016-08-01T07:07:27.273Z,1013.64
2016-08-01T07:08:27.307Z,1012.11
2016-08-01T07:09:27.340Z,1012.2
2016-08-01T07:10:27.374Z,1012.1
2016-08-01T07:11:27.405Z,1012.09
2016-08-01T07:12:27.442Z,1013.58
2016-08-01T07:13:27.475Z,1012.28
2016-08-01T07:14:27.507Z,1012.21
2016-08-01T07:15:27.539Z,1013.68
2016-08-01T07:16:27.573Z,1012.11
2016-08-01T07:17:27.607Z,1012.12
2016-08-01T07:18:27.640Z,1012.33
2016-08-01T07:20:27.705Z,1013.52
2016-08-01T07:21:27.741Z,1012.21
2016-08-01T07:22:27.773Z,1013.6
2016-08-01T07:23:27.804Z,1012.68
2016-08-01T07:24:27.841Z,1012.19
2016-08-01T07:25:27.874Z,1013.36
2016-08-01T07:26:27.905Z,1013.11
2016-08-01T07:27:27.938Z,1013.23
2016-08-01T07:28:27.973Z,1013.49
2016-08-01T07:29:28.004Z,1013.46
2016-08-01T07:30:28.036Z,1013.42
2016-08-01T07:31:28.072Z,1012.72
2016-08-01T07:32:28.104Z,1013.16
2016-08-01T07:33:28.139Z,1013.13
2016-08-01T07:35:28.205Z,1013.15
2016-08-01T07:36:28.238Z,1013.13
2016-08-01T07:37:28.275Z,1013.14
2016-08-01T07:38:28.307Z,1012.06
2016-08-01T07:39:28.340Z,1013.13
2016-08-01T07:40:28.377Z,1013.11
2016-08-01T07:41:28.408Z,1013.06
2016-08-01T07:42:28.442Z,1013.07
2016-08-01T07:43:28.524Z,1012.95
2016-08-01T07:44:28.511Z,1013.02
2016-08-01T07:45:28.545Z,1012.29
2016-08-01T07:46:28.613Z,1013.03
2016-08-01T07:47:28.611Z,1013.04
2016-08-01T07:48:28.645Z,1012.5
2016-08-01T07:49:28.681Z,1012.17
2016-08-01T07:50:28.718Z,1012.71
2016-08-01T07:51:28.750Z,1012.99
2016-08-01T07:52:28.783Z,1012.95
2016-08-01T07:53:28.816Z,1012.96
2016-08-01T07:54:28.850Z,1012.89
2016-08-01T07:55:28.886Z,1012.94
2016-08-01T07:56:28.920Z,1012.9
2016-08-01T07:57:28.955Z,1012.92
2016-08-01T07:58:28.987Z,1012.88
2016-08-01T07:59:29.023Z,1012.23
2016-08-01T08:00:29.063Z,1012.95
2016-08-01T08:01:29.091Z,1012.89
2016-08-01T08:02:29.127Z,1012.45
2016-08-01T08:03:29.161Z,1012.54
2016-08-01T08:04:29.202Z,1012.23
2016-08-01T08:05:29.231Z,1012.32
2016-08-01T08:07:29.300Z,1012.66
2016-08-01T08:08:29.334Z,1012.65
2016-08-01T08:09:29.367Z,1012.63
2016-08-01T08:10:29.403Z,1012.61
2016-08-01T08:11:29.442Z,1012.46
2016-08-01T08:12:29.470Z,1012.7
2016-08-01T08:13:29.505Z,1012.7
2016-08-01T08:14:29.540Z,1012.72
2016-08-01T08:15:29.575Z,1012.7
2016-08-01T08:16:29.610Z,1012.77
2016-08-01T08:17:29.643Z,1012.71
2016-08-01T08:18:29.677Z,1012.7
2016-08-01T08:19:29.713Z,1012.67
2016-08-01T08:20:29.745Z,1012.73
2016-08-01T08:21:29.781Z,1012.71
2016-08-01T08:23:29.851Z,1012.73
2016-08-01T08:24:29.885Z,1012.37
2016-08-01T08:25:29.971Z,1012.74
2016-08-01T08:26:29.954Z,1012.8
2016-08-01T08:27:29.989Z,1012.87
2016-08-01T08:28:30.024Z,1012.9
2016-08-01T08:29:30.057Z,1012.88
2016-08-01T08:30:30.102Z,1012.98
2016-08-01T08:31:30.125Z,1012.77
2016-08-01T08:32:30.162Z,1012.36
2016-08-01T08:33:30.197Z,1012.35
2016-08-01T08:34:30.232Z,1012.39
2016-08-01T08:35:30.264Z,1012.4
2016-08-01T08:36:30.300Z,1012.41
2016-08-01T08:37:30.333Z,1012.43
2016-08-01T08:39:30.400Z,1012.44
2016-08-01T08:40:30.435Z,1012.46
2016-08-01T08:41:30.471Z,1012.45
2016-08-01T08:42:30.519Z,1012.42
2016-08-01T08:43:30.537Z,1012.41
2016-08-01T08:44:30.570Z,1012.98
2016-08-01T08:45:30.605Z,1012.45
2016-08-01T08:46:30.637Z,1012.42
2016-08-01T08:47:30.668Z,1012.42
2016-08-01T08:48:30.701Z,1012.62
2016-08-01T08:49:30.736Z,1012.64
2016-08-01T08:50:30.818Z,1012.54
2016-08-01T08:51:30.802Z,1012.62
2016-08-01T08:52:30.836Z,1012.64
2016-08-01T08:53:30.867Z,1012.69
2016-08-01T08:55:30.933Z,1012.38
2016-08-01T08:56:30.967Z,1012.39
2016-08-01T08:57:30.999Z,1012.43
2016-08-01T08:58:31.033Z,1012.57
2016-08-01T08:59:31.115Z,1012.48
2016-08-01T09:00:31.095Z,1012.48
2016-08-01T09:01:31.132Z,1012.5
2016-08-01T09:02:31.164Z,1012.72
2016-08-01T09:03:31.198Z,1012.67
2016-08-01T09:04:31.235Z,1012.68
2016-08-01T09:05:31.263Z,1012.58
2016-08-01T09:06:31.295Z,1012.6
2016-08-01T09:07:31.330Z,1012.54
2016-08-01T09:08:31.363Z,1012.52
2016-08-01T09:10:31.430Z,1012.52
2016-08-01T09:11:31.460Z,1012.52
2016-08-01T09:12:31.493Z,1012.48
2016-08-01T09:13:31.529Z,1012.49
2016-08-01T09:14:31.563Z,1012.61
2016-08-01T09:15:31.594Z,1012.53
2016-08-01T09:16:31.625Z,1012.52
2016-08-01T09:17:31.661Z,1012.51
2016-08-01T09:18:31.691Z,1012.49
2016-08-01T09:19:31.726Z,1012.51
2016-08-01T09:20:31.757Z,1012.56
2016-08-01T09:21:31.792Z,1012.45
2016-08-01T09:22:31.825Z,1012.52
2016-08-01T09:23:31.857Z,1012.5
2016-08-01T09:24:31.890Z,1012.5
2016-08-01T09:25:31.923Z,1012.54
2016-08-01T09:26:32.006Z,1012.46
2016-08-01T09:27:31.990Z,1012.53
2016-08-01T09:28:32.022Z,1012.53
2016-08-01T09:29:32.057Z,1012.55
2016-08-01T09:30:32.090Z,1012.53
2016-08-01T09:31:32.122Z,1012.51
2016-08-01T09:32:32.155Z,1012.56
2016-08-01T09:33:32.187Z,1012.52
2016-08-01T09:34:32.221Z,1012.54
2016-08-01T09:35:32.255Z,1012.63
2016-08-01T09:36:32.288Z,1012.64
2016-08-01T09:37:32.322Z,1012.66
2016-08-01T09:38:32.356Z,1012.63
2016-08-01T09:39:32.389Z,1012.65
2016-08-01T09:40:32.421Z,1012.68
2016-08-01T09:42:32.492Z,1012.76
2016-08-01T09:43:32.521Z,1012.73
2016-08-01T09:44:32.551Z,1012.66
2016-08-01T09:45:32.586Z,1012.62
2016-08-01T09:46:32.620Z,1012.58
2016-08-01T09:47:32.654Z,1012.68
2016-08-01T09:48:32.687Z,1012.65
2016-08-01T09:49:32.717Z,1012.63
2016-08-01T09:50:32.753Z,1012.7
2016-08-01T09:51:32.785Z,1012.69
2016-08-01T09:52:32.817Z,1012.72
2016-08-01T09:53:32.850Z,1012.7
2016-08-01T09:54:32.885Z,1012.68
2016-08-01T09:55:32.917Z,1012.62
2016-08-01T09:56:32.949Z,1012.6
2016-08-01T09:58:33.017Z,1012.65
2016-08-01T09:59:33.099Z,1012.72
2016-08-01T10:00:33.081Z,1012.65
2016-08-01T10:01:33.114Z,1012.67
2016-08-01T10:02:33.146Z,1012.68
2016-08-01T10:03:33.179Z,1012.71
2016-08-01T10:04:33.215Z,1012.69
2016-08-01T10:05:33.248Z,1012.78
2016-08-01T10:06:33.284Z,1012.86
2016-08-01T10:07:33.312Z,1012.82
2016-08-01T10:08:33.343Z,1012.79
2016-08-01T10:09:33.376Z,1012.84
2016-08-01T10:10:33.413Z,1012.89
2016-08-01T10:11:33.444Z,1012.91
2016-08-01T10:12:33.474Z,1012.96
2016-08-01T10:14:33.541Z,1012.94
2016-08-01T10:15:33.572Z,1012.91
2016-08-01T10:16:33.604Z,1012.93
2016-08-01T10:17:33.637Z,1012.97
2016-08-01T10:18:33.671Z,1012.94
2016-08-01T10:19:33.704Z,1012.97
2016-08-01T10:20:33.735Z,1012.96
2016-08-01T10:21:33.768Z,1012.95
2016-08-01T10:22:33.800Z,1012.95
2016-08-01T10:23:33.833Z,1012.95
2016-08-01T10:24:33.864Z,1012.89
2016-08-01T10:25:33.897Z,1012.87
2016-08-01T10:26:33.930Z,1012.89
2016-08-01T10:27:33.963Z,1012.8
2016-08-01T10:28:33.994Z,1012.9
2016-08-01T10:30:34.060Z,1012.85
2016-08-01T10:31:34.093Z,1012.92
2016-08-01T10:32:34.124Z,1013
2016-08-01T10:33:34.159Z,1012.92
2016-08-01T10:34:34.192Z,1012.89
2016-08-01T10:35:34.222Z,1012.9
2016-08-01T10:36:34.255Z,1012.87
2016-08-01T10:37:34.288Z,1012.87
2016-08-01T10:38:34.321Z,1012.87
2016-08-01T10:39:34.349Z,1012.82
2016-08-01T10:40:34.385Z,1012.88
2016-08-01T10:41:34.416Z,1012.94
2016-08-01T10:42:34.447Z,1012.89
2016-08-01T10:43:34.479Z,1012.88
2016-08-01T10:45:34.546Z,1012.91
2016-08-01T10:46:34.577Z,1012.88
2016-08-01T10:47:34.607Z,1012.92
2016-08-01T10:48:34.642Z,1012.86
2016-08-01T10:49:34.672Z,1012.81
2016-08-01T10:51:34.738Z,1012.84
2016-08-01T10:52:34.770Z,1012.93
2016-08-01T10:53:34.800Z,1012.87
2016-08-01T10:54:34.831Z,1012.82
2016-08-01T10:55:34.865Z,1012.82
2016-08-01T10:56:34.897Z,1012.79
2016-08-01T10:57:34.928Z,1012.83
2016-08-01T10:58:34.960Z,1012.87
2016-08-01T10:59:34.990Z,1012.83
2016-08-01T11:00:35.071Z,1012.85
2016-08-01T11:01:35.054Z,1012.79
2016-08-01T11:02:35.085Z,1012.78
2016-08-01T11:03:35.118Z,1012.77
2016-08-01T11:04:35.146Z,1012.75
2016-08-01T11:06:35.212Z,1012.81
2016-08-01T11:07:35.242Z,1012.77
2016-08-01T11:08:35.274Z,1012.74
2016-08-01T11:09:35.303Z,1012.75
2016-08-01T11:10:35.335Z,1012.75
2016-08-01T11:11:35.366Z,1012.8
2016-08-01T11:12:35.399Z,1012.76
2016-08-01T11:13:35.430Z,1012.8
2016-08-01T11:14:35.459Z,1012.72
2016-08-01T11:15:35.491Z,1012.74
2016-08-01T11:17:35.552Z,1012.74
2016-08-01T11:18:35.585Z,1012.82
2016-08-01T11:19:35.614Z,1012.84
2016-08-01T11:21:35.678Z,1012.77
2016-08-01T11:22:35.709Z,1012.8
2016-08-01T11:23:35.736Z,1012.83
2016-08-01T11:24:35.769Z,1012.85
2016-08-01T11:25:35.801Z,1012.87
2016-08-01T11:26:35.831Z,1012.78
2016-08-01T11:27:35.861Z,1012.92
2016-08-01T11:28:35.895Z,1012.81
2016-08-01T11:29:35.922Z,1012.86
2016-08-01T11:30:35.955Z,1012.8
2016-08-01T11:31:35.985Z,1012.83
2016-08-01T11:33:36.046Z,1012.8
2016-08-01T11:34:36.076Z,1012.81
2016-08-01T11:35:36.106Z,1012.83
2016-08-01T11:36:36.136Z,1012.89
2016-08-01T11:37:36.167Z,1012.92
2016-08-01T11:38:36.199Z,1012.9
2016-08-01T11:39:36.330Z,1012.91
2016-08-01T11:40:36.261Z,1012.92
2016-08-01T11:41:36.292Z,1012.95
2016-08-01T11:42:36.320Z,1012.95
2016-08-01T11:43:36.351Z,1012.97
2016-08-01T11:44:36.385Z,1013.04
2016-08-01T11:45:36.410Z,1013.05
2016-08-01T11:46:36.441Z,1013.04
2016-08-01T11:47:36.473Z,1013.05
2016-08-01T11:49:36.535Z,1013.1
2016-08-01T11:50:36.565Z,1013.13
2016-08-01T11:51:36.596Z,1013.14
2016-08-01T11:52:36.626Z,1013.15
2016-08-01T11:53:36.654Z,1013.15
2016-08-01T11:54:36.688Z,1013.08
2016-08-01T11:55:36.718Z,1013.13
2016-08-01T11:56:36.745Z,1013.12
2016-08-01T11:57:36.780Z,1013.14
2016-08-01T11:58:36.809Z,1013.08
2016-08-01T11:59:36.836Z,1013.11
2016-08-01T12:00:36.867Z,1013.14
2016-08-01T12:01:36.897Z,1013.12
2016-08-01T12:02:36.930Z,1013.17
2016-08-01T12:03:36.959Z,1013.18
2016-08-01T12:05:37.018Z,1013.22
2016-08-01T12:06:37.050Z,1013.13
2016-08-01T12:07:37.078Z,1013.23
2016-08-01T12:08:37.111Z,1013.25
2016-08-01T12:09:37.138Z,1013.22
2016-08-01T12:10:37.168Z,1013.18
2016-08-01T12:11:37.196Z,1013.22
2016-08-01T12:12:37.228Z,1013.2
2016-08-01T12:13:37.258Z,1013.2
2016-08-01T12:14:37.287Z,1013.22
2016-08-01T12:15:37.317Z,1013.2
2016-08-01T12:16:37.347Z,1013.18
2016-08-01T12:17:37.377Z,1013.16
2016-08-01T12:18:37.407Z,1013.22
2016-08-01T12:20:37.465Z,1013.19
2016-08-01T12:21:37.495Z,1013.13
2016-08-01T12:22:37.522Z,1013.17
2016-08-01T12:23:37.551Z,1013.15
2016-08-01T12:24:37.583Z,1013.13
2016-08-01T12:25:37.610Z,1013.19
2016-08-01T12:26:37.639Z,1013.14
2016-08-01T12:27:37.672Z,1013.18
2016-08-01T12:28:37.699Z,1013.16
2016-08-01T12:29:37.728Z,1013.19
2016-08-01T12:30:37.760Z,1013.2
2016-08-01T12:31:37.789Z,1013.19
2016-08-01T12:32:37.818Z,1013.22
2016-08-01T12:33:37.861Z,1013.2
2016-08-01T12:34:37.878Z,1013.19
2016-08-01T12:35:37.907Z,1013.16
2016-08-01T12:36:37.937Z,1013.16
2016-08-01T12:37:37.964Z,1013.12
2016-08-01T12:38:37.994Z,1013.13
2016-08-01T12:39:38.024Z,1013.12
2016-08-01T12:40:38.055Z,1013.12
2016-08-01T12:41:38.084Z,1013.13
2016-08-01T12:42:38.115Z,1013.11
2016-08-01T12:43:38.144Z,1013.12
2016-08-01T12:44:38.173Z,1013.1
2016-08-01T12:45:38.202Z,1013.05
2016-08-01T12:46:38.233Z,1013.03
2016-08-01T12:47:38.264Z,1013.06
2016-08-01T12:48:38.342Z,1013.06
2016-08-01T12:49:38.324Z,1013.05
2016-08-01T12:50:38.353Z,1013.11
2016-08-01T12:52:38.413Z,1013.12
2016-08-01T12:53:38.442Z,1013.07
2016-08-01T12:54:38.469Z,1013.03
2016-08-01T12:55:38.502Z,1013.06
2016-08-01T12:56:38.529Z,1013.09
2016-08-01T12:57:38.561Z,1013.06
2016-08-01T12:58:38.588Z,1013.05
2016-08-01T12:59:38.618Z,1013.01
2016-08-01T13:00:38.650Z,1013.09
2016-08-01T13:01:38.679Z,1013.06
2016-08-01T13:02:38.709Z,1013.03